Time;durP1;ratioP1;P1;durP2;ratioP2;P2;SDS_P1;SDS_P2;PMS_P1;PMS_P2;Temp;Humidity;BMP_temperature;BMP_pressure;BME280_temperature;BME280_humidity;BME280_pressure;Samples;Min_cycle;Max_cycle;Signal;HPM_P1;HPM_P2
2021/10/31 00:00:20;;;;;;;11.95;6.95;;;;;;;8.90;48.52;94457.78;4963412;28;20026;-74
2021/10/31 00:02:45;;;;;;;10.75;6.25;;;;;;;8.74;48.22;94424.59;4958946;28;20046;-75
2021/10/31 00:05:11;;;;;;;9.18;5.85;;;;;;;8.87;47.76;94447.72;4957537;28;20125;-75
2021/10/31 00:07:36;;;;;;;9.45;6.38;;;;;;;8.90;48.06;94455.91;4956397;28;20101;-76
2021/10/31 00:10:03;;;;;;;10.40;6.38;;;;;;;8.47;48.14;94404.78;4956537;28;20062;-75
2021/10/31 00:12:29;;;;;;;10.00;6.75;;;;;;;8.81;47.76;94433.75;4964122;28;20568;-77
2021/10/31 00:14:54;;;;;;;9.38;6.57;;;;;;;8.88;47.78;94457.28;4957930;28;20039;-75
2021/10/31 00:17:20;;;;;;;11.18;6.05;;;;;;;8.28;47.72;94361.56;4964164;28;20046;-75
2021/10/31 00:19:48;;;;;;;9.35;5.70;;;;;;;8.75;48.26;94447.38;4961085;28;20042;-76
2021/10/31 00:22:13;;;;;;;12.07;6.32;;;;;;;8.74;48.11;94445.81;4961904;28;20085;-75
2021/10/31 00:24:39;;;;;;;8.07;5.53;;;;;;;8.63;48.45;94445.13;4957227;28;20077;-76
2021/10/31 00:27:04;;;;;;;10.43;6.22;;;;;;;8.48;48.71;94430.22;4961411;28;20022;-76
2021/10/31 00:29:30;;;;;;;12.05;7.28;;;;;;;8.62;48.65;94440.13;4961103;28;20076;-76
2021/10/31 00:31:56;;;;;;;9.65;5.72;;;;;;;8.57;48.35;94433.81;4967523;28;20504;-75
2021/10/31 00:34:21;;;;;;;11.07;5.70;;;;;;;8.52;48.62;94436.53;4973071;28;20038;-76
2021/10/31 00:36:47;;;;;;;12.32;7.30;;;;;;;8.48;48.74;94435.50;4961213;28;20085;-75
2021/10/31 00:39:12;;;;;;;9.50;5.78;;;;;;;8.53;48.82;94437.31;4966821;28;20034;-74
2021/10/31 00:41:38;;;;;;;11.70;6.55;;;;;;;8.52;48.79;94444.47;4966298;28;20058;-75
2021/10/31 00:44:03;;;;;;;12.48;7.72;;;;;;;8.48;49.10;94451.44;4958866;28;20050;-76
2021/10/31 00:46:29;;;;;;;8.48;5.72;;;;;;;8.49;49.15;94441.59;4967428;28;20034;-75
2021/10/31 00:48:55;;;;;;;12.52;6.75;;;;;;;8.50;49.16;94440.53;4966240;28;20600;-75
2021/10/31 00:51:21;;;;;;;11.20;7.05;;;;;;;8.44;49.14;94433.72;4965557;28;20527;-74
2021/10/31 00:53:47;;;;;;;11.85;6.80;;;;;;;8.50;49.38;94425.44;4960214;28;20520;-75
2021/10/31 00:56:13;;;;;;;16.20;6.50;;;;;;;8.45;49.40;94422.84;4965123;28;20518;-77
2021/10/31 00:58:38;;;;;;;11.57;6.90;;;;;;;8.45;49.51;94452.00;4963434;28;20472;-75
2021/10/31 01:01:04;;;;;;;10.43;6.63;;;;;;;8.40;49.42;94440.66;4968285;28;20127;-75
2021/10/31 01:03:30;;;;;;;15.10;7.63;;;;;;;8.35;49.96;94435.44;4964365;28;20436;-75
2021/10/31 01:06:14;;;;;;;13.55;7.43;;;;;;;8.37;49.69;94451.81;4966900;28;20134;-75
2021/10/31 01:08:49;;;;;;;11.10;7.57;;;;;;;8.23;49.99;94435.81;4963856;28;20026;-75
2021/10/31 01:11:33;;;;;;;9.77;6.82;;;;;;;8.31;49.67;94434.41;4964736;28;20038;-75
2021/10/31 01:14:20;;;;;;;13.85;7.35;;;;;;;8.22;49.94;94420.97;4964767;28;20061;-76
2021/10/31 01:17:11;;;;;;;11.18;7.03;;;;;;;8.18;49.96;94435.06;4976863;28;20097;-75
2021/10/31 01:20:06;;;;;;;14.48;7.20;;;;;;;8.15;50.28;94433.81;4967827;28;20026;-76
2021/10/31 01:22:57;;;;;;;12.45;7.25;;;;;;;8.05;50.66;94440.00;4964579;28;20532;-75
2021/10/31 01:25:37;;;;;;;12.30;7.43;;;;;;;8.02;50.97;94437.91;4980221;28;20052;-74
2021/10/31 01:28:49;;;;;;;11.75;7.65;;;;;;;8.01;50.78;94425.75;4980529;28;20382;-74
2021/10/31 01:31:36;;;;;;;14.70;7.75;;;;;;;8.17;50.44;94431.63;4972465;28;20035;-75
2021/10/31 01:34:10;;;;;;;16.45;8.98;;;;;;;8.16;50.52;94427.44;4965386;28;20564;-75
2021/10/31 01:36:54;;;;;;;14.38;8.73;;;;;;;8.22;51.08;94430.81;4968614;28;20502;-75
2021/10/31 01:39:56;;;;;;;12.57;7.63;;;;;;;8.24;51.38;94421.50;4964594;28;20477;-74
2021/10/31 01:42:27;;;;;;;13.88;7.53;;;;;;;8.25;51.20;94424.94;4965174;28;20108;-75
2021/10/31 01:45:36;;;;;;;14.68;8.80;;;;;;;8.13;51.38;94401.50;4964092;28;20035;-74
2021/10/31 01:48:21;;;;;;;14.30;9.05;;;;;;;8.22;51.41;94415.69;4958061;28;20034;-74
2021/10/31 01:50:52;;;;;;;13.88;9.00;;;;;;;8.32;51.26;94410.25;4965466;28;20038;-74
2021/10/31 01:53:31;;;;;;;19.25;8.43;;;;;;;8.31;50.80;94394.66;4968730;28;20151;-74
2021/10/31 01:56:09;;;;;;;16.88;8.60;;;;;;;8.26;51.06;94394.72;4961401;28;20038;-75
2021/10/31 01:58:39;;;;;;;14.02;7.75;;;;;;;8.32;51.18;94399.66;4965564;28;20034;-75
2021/10/31 02:01:07;;;;;;;14.32;7.63;;;;;;;8.44;51.22;94408.00;4964813;28;20728;-75
2021/10/31 02:03:36;;;;;;;15.73;8.73;;;;;;;8.43;51.08;94409.06;4964668;28;20034;-75
2021/10/31 02:06:02;;;;;;;13.70;8.45;;;;;;;8.51;51.28;94403.13;4965329;28;20406;-74
2021/10/31 02:08:28;;;;;;;13.60;7.75;;;;;;;8.49;51.13;94410.59;4969871;28;20189;-74
2021/10/31 02:10:57;;;;;;;18.58;8.70;;;;;;;8.39;51.55;94396.69;4963478;28;20054;-74
2021/10/31 02:13:27;;;;;;;17.58;8.70;;;;;;;8.35;51.91;94399.13;4963871;28;20429;-75
2021/10/31 02:15:54;;;;;;;14.30;8.68;;;;;;;8.19;51.94;94379.16;4963917;28;20794;-74
2021/10/31 02:18:22;;;;;;;14.23;8.95;;;;;;;8.22;52.46;94393.72;4966866;28;20031;-75
2021/10/31 02:20:51;;;;;;;14.13;9.25;;;;;;;8.21;52.60;94397.44;4961822;28;20571;-75
2021/10/31 02:23:17;;;;;;;13.93;8.77;;;;;;;8.31;52.20;94402.63;4966193;28;20146;-74
2021/10/31 02:25:42;;;;;;;15.40;8.52;;;;;;;8.00;52.20;94344.69;4963434;28;20043;-75
2021/10/31 02:28:09;;;;;;;14.25;8.65;;;;;;;8.48;51.73;94387.00;4959105;28;20042;-76
2021/10/31 02:30:34;;;;;;;18.77;9.95;;;;;;;8.42;51.63;94380.19;4962996;28;20034;-75
2021/10/31 02:32:59;;;;;;;15.57;8.85;;;;;;;8.12;51.55;94331.81;4969319;28;20045;-75
2021/10/31 02:35:25;;;;;;;17.92;9.25;;;;;;;8.23;51.65;94361.63;4964239;28;20047;-75
2021/10/31 02:37:51;;;;;;;13.13;8.90;;;;;;;8.41;52.13;94392.66;4962405;28;20038;-75
2021/10/31 02:40:20;;;;;;;15.20;8.30;;;;;;;8.39;52.36;94397.47;4964779;28;20292;-75
2021/10/31 02:42:47;;;;;;;24.77;11.88;;;;;;;8.29;52.61;94394.94;4966464;28;20030;-75
2021/10/31 02:45:13;;;;;;;15.73;10.05;;;;;;;8.31;52.59;94392.81;4961720;28;20437;-75
2021/10/31 02:47:40;;;;;;;16.40;9.07;;;;;;;8.41;52.32;94390.00;4957424;28;20097;-76
2021/10/31 02:50:08;;;;;;;15.13;8.80;;;;;;;8.33;52.60;94382.69;4960797;28;20555;-75
2021/10/31 02:52:58;;;;;;;18.00;11.25;;;;;;;8.41;51.98;94376.75;4954153;28;20054;-75
2021/10/31 02:55:41;;;;;;;13.35;7.20;;;;;;;8.34;52.39;94360.44;4957595;28;20050;-75
2021/10/31 02:58:32;;;;;;;14.32;8.82;;;;;;;8.36;52.28;94378.69;4958694;28;20444;-75
2021/10/31 03:01:00;;;;;;;14.63;8.98;;;;;;;8.34;52.20;94371.03;4956891;28;20537;-74
2021/10/31 03:03:28;;;;;;;16.25;9.45;;;;;;;8.25;52.67;94358.69;4957898;28;20038;-76
2021/10/31 03:05:57;;;;;;;13.63;8.68;;;;;;;8.41;52.26;94360.09;4957277;28;20038;-75
2021/10/31 03:08:23;;;;;;;12.60;8.32;;;;;;;8.50;52.58;94388.31;4958188;28;20286;-75
2021/10/31 03:10:51;;;;;;;14.88;9.30;;;;;;;8.61;52.08;94377.56;4962807;28;20035;-75
2021/10/31 03:13:16;;;;;;;15.45;8.75;;;;;;;8.55;52.21;94387.47;4959619;28;20050;-75
2021/10/31 03:15:42;;;;;;;13.68;9.73;;;;;;;8.50;51.87;94368.97;4959810;28;20030;-75
2021/10/31 03:18:07;;;;;;;17.00;8.52;;;;;;;8.66;51.80;94382.81;4964623;28;20513;-75
2021/10/31 03:20:33;;;;;;;17.13;8.32;;;;;;;8.68;51.89;94380.63;4959832;28;20051;-75
2021/10/31 03:22:58;;;;;;;13.73;8.48;;;;;;;8.48;52.02;94361.28;4967362;28;20320;-75
2021/10/31 03:25:23;;;;;;;18.10;8.30;;;;;;;8.67;51.95;94374.53;4962506;28;20200;-75
2021/10/31 03:27:51;;;;;;;16.05;9.35;;;;;;;8.65;51.99;94370.63;4959877;28;20430;-76
2021/10/31 03:30:18;;;;;;;16.95;9.70;;;;;;;8.72;51.95;94381.63;4958257;28;20035;-75
2021/10/31 03:32:44;;;;;;;18.58;9.77;;;;;;;8.67;51.96;94373.75;4953483;28;20038;-75
2021/10/31 03:35:10;;;;;;;19.33;9.57;;;;;;;8.64;52.01;94369.81;4963689;28;20045;-75
2021/10/31 03:37:36;;;;;;;16.90;10.02;;;;;;;8.76;52.04;94382.63;4959478;28;20571;-76
2021/10/31 03:40:02;;;;;;;17.25;11.02;;;;;;;8.78;52.16;94383.16;4967160;28;20042;-75
2021/10/31 03:42:27;;;;;;;23.02;11.30;;;;;;;8.76;52.09;94382.63;4958253;28;20421;-75
2021/10/31 03:44:53;;;;;;;18.40;11.63;;;;;;;8.96;51.51;94380.47;4960481;28;20422;-76
2021/10/31 03:47:21;;;;;;;19.88;11.20;;;;;;;8.65;51.96;94360.00;4962250;28;20656;-76
2021/10/31 03:49:46;;;;;;;16.50;9.70;;;;;;;9.09;51.17;94381.63;4960952;28;20035;-76
2021/10/31 03:52:12;;;;;;;18.98;10.30;;;;;;;8.59;51.41;94325.63;4961935;28;20082;-75
2021/10/31 03:54:38;;;;;;;17.25;9.43;;;;;;;8.76;51.69;94378.13;4960742;28;20085;-76
2021/10/31 03:57:04;;;;;;;18.38;11.30;;;;;;;8.68;51.67;94364.72;4963702;28;20038;-74
2021/10/31 03:59:30;;;;;;;15.95;10.18;;;;;;;8.72;51.90;94371.03;4968210;28;20072;-74
2021/10/31 04:01:56;;;;;;;19.08;10.85;;;;;;;8.61;52.00;94359.00;4963174;28;20121;-74
2021/10/31 04:04:21;;;;;;;17.38;10.07;;;;;;;8.63;51.88;94364.81;4968508;28;20151;-74
2021/10/31 04:06:46;;;;;;;19.35;10.93;;;;;;;8.88;51.76;94375.03;4968486;28;20073;-74
2021/10/31 04:09:12;;;;;;;17.95;9.73;;;;;;;8.83;51.58;94378.56;4967394;28;20354;-74
2021/10/31 04:11:37;;;;;;;16.92;10.63;;;;;;;8.73;51.69;94357.50;4965438;28;20532;-74
2021/10/31 04:14:03;;;;;;;18.58;11.35;;;;;;;8.75;51.80;94370.47;4966380;28;20523;-74
2021/10/31 04:16:28;;;;;;;19.73;10.07;;;;;;;8.70;52.01;94373.19;4968009;28;20137;-74
2021/10/31 04:18:54;;;;;;;19.88;10.65;;;;;;;8.59;51.87;94346.81;4963031;28;20047;-74
2021/10/31 04:21:19;;;;;;;17.02;10.18;;;;;;;8.73;51.86;94362.00;4968865;28;20338;-75
2021/10/31 04:23:45;;;;;;;17.10;10.10;;;;;;;8.81;51.65;94364.00;4966969;28;20041;-74
2021/10/31 04:26:10;;;;;;;14.85;9.90;;;;;;;8.69;51.63;94345.09;4967403;28;20921;-74
2021/10/31 04:28:35;;;;;;;20.27;9.63;;;;;;;8.89;51.58;94368.66;4962615;28;20097;-75
2021/10/31 04:31:01;;;;;;;15.32;9.75;;;;;;;8.71;51.37;94346.38;4972536;28;20042;-74
2021/10/31 04:33:26;;;;;;;17.67;9.68;;;;;;;8.84;51.67;94371.41;4964816;28;20026;-75
2021/10/31 04:35:52;;;;;;;20.23;10.98;;;;;;;8.81;51.71;94364.00;4962164;28;20046;-75
2021/10/31 04:38:21;;;;;;;23.60;12.75;;;;;;;8.79;51.85;94351.03;4967402;28;20290;-75
2021/10/31 04:40:46;;;;;;;27.65;12.85;;;;;;;8.74;51.73;94347.69;4958587;28;20480;-75
2021/10/31 04:43:12;;;;;;;16.02;10.52;;;;;;;8.74;51.62;94342.38;4964708;28;20122;-75
2021/10/31 04:45:39;;;;;;;15.27;9.40;;;;;;;8.53;51.95;94340.00;4959873;28;20089;-75
2021/10/31 04:48:05;;;;;;;17.48;10.30;;;;;;;8.64;52.21;94358.44;4963631;28;20037;-74
2021/10/31 04:50:31;;;;;;;15.85;9.30;;;;;;;8.67;52.00;94344.59;4961743;28;20464;-75
2021/10/31 04:52:56;;;;;;;12.65;9.45;;;;;;;8.70;51.99;94352.78;4962244;28;20522;-75
2021/10/31 04:55:21;;;;;;;17.42;9.55;;;;;;;8.64;51.95;94332.69;4963633;28;20198;-74
2021/10/31 04:57:47;;;;;;;17.98;10.77;;;;;;;8.74;52.15;94350.31;4962763;28;20107;-74
2021/10/31 05:00:13;;;;;;;18.23;10.63;;;;;;;8.86;51.76;94343.50;4965856;28;20114;-73
2021/10/31 05:02:39;;;;;;;15.93;10.20;;;;;;;8.74;51.66;94343.16;4963364;28;20122;-74
2021/10/31 05:05:05;;;;;;;17.65;10.10;;;;;;;8.72;51.95;94334.69;4965316;28;20051;-74
2021/10/31 05:07:31;;;;;;;16.67;9.60;;;;;;;8.44;52.00;94290.59;4963946;28;20125;-75
2021/10/31 05:09:57;;;;;;;18.35;10.75;;;;;;;8.84;51.96;94347.53;4965512;28;20619;-76
2021/10/31 05:12:25;;;;;;;18.98;10.40;;;;;;;8.93;51.85;94335.97;4966713;28;20477;-75
2021/10/31 05:14:51;;;;;;;18.83;11.00;;;;;;;8.71;51.76;94319.06;4963691;28;20039;-74
2021/10/31 05:17:16;;;;;;;18.00;9.93;;;;;;;8.85;52.04;94339.25;4963062;28;20058;-74
2021/10/31 05:19:42;;;;;;;14.93;10.07;;;;;;;8.65;51.95;94313.06;4960277;28;20057;-74
2021/10/31 05:22:07;;;;;;;15.60;10.38;;;;;;;8.96;51.44;94342.53;4962522;28;20126;-76
2021/10/31 05:24:33;;;;;;;19.75;11.90;;;;;;;8.82;51.83;94323.94;4960600;28;20022;-75
2021/10/31 05:26:58;;;;;;;20.85;11.63;;;;;;;8.99;51.71;94345.44;4963410;28;20033;-74
2021/10/31 05:29:23;;;;;;;22.48;11.00;;;;;;;8.84;51.62;94334.25;4961619;28;20078;-75
2021/10/31 05:31:49;;;;;;;20.40;11.27;;;;;;;8.94;51.65;94339.41;4962997;28;20042;-75
2021/10/31 05:34:14;;;;;;;19.67;12.05;;;;;;;8.98;51.72;94348.38;4966661;28;20054;-75
2021/10/31 05:36:39;;;;;;;19.13;12.27;;;;;;;8.96;51.80;94355.81;4963641;28;20691;-76
2021/10/31 05:39:05;;;;;;;20.75;11.05;;;;;;;8.98;51.72;94351.00;4961227;28;20781;-75
2021/10/31 05:41:30;;;;;;;20.27;11.00;;;;;;;8.85;51.91;94339.25;4962927;28;20081;-75
2021/10/31 05:43:56;;;;;;;20.52;10.55;;;;;;;8.83;51.92;94333.47;4965373;28;20042;-75
2021/10/31 05:46:21;;;;;;;19.58;10.65;;;;;;;9.23;51.19;94349.84;4958062;28;20035;-75
2021/10/31 05:48:47;;;;;;;21.60;12.52;;;;;;;9.10;51.43;94353.19;4960308;28;20038;-74
2021/10/31 05:51:12;;;;;;;24.05;12.68;;;;;;;8.63;52.65;94362.94;4963360;28;20038;-75
2021/10/31 05:53:38;;;;;;;23.42;12.27;;;;;;;8.86;52.71;94363.91;4962690;28;20072;-75
2021/10/31 05:56:04;;;;;;;21.00;11.18;;;;;;;9.10;52.00;94366.47;4961585;28;20077;-73
2021/10/31 05:58:31;;;;;;;20.80;12.07;;;;;;;9.01;52.23;94369.00;4961951;28;20038;-74
2021/10/31 06:00:56;;;;;;;22.25;13.73;;;;;;;8.94;52.01;94352.69;4962884;28;20031;-74
2021/10/31 06:03:23;;;;;;;23.17;12.88;;;;;;;9.11;52.12;94363.56;4961362;28;20026;-74
2021/10/31 06:05:49;;;;;;;22.58;13.27;;;;;;;9.07;52.16;94351.94;4961633;28;20400;-74
2021/10/31 06:08:16;;;;;;;25.40;14.05;;;;;;;9.28;51.11;94360.38;4961206;28;20042;-74
2021/10/31 06:10:43;;;;;;;19.48;11.82;;;;;;;9.41;51.06;94368.38;4959865;28;20954;-75
2021/10/31 06:13:09;;;;;;;22.13;14.05;;;;;;;9.19;50.70;94338.25;4961034;28;20355;-74
2021/10/31 06:15:35;;;;;;;27.52;15.05;;;;;;;9.27;51.14;94356.16;4960189;28;20088;-75
2021/10/31 06:18:01;;;;;;;24.40;14.15;;;;;;;9.24;51.11;94354.09;4965566;28;20108;-74
2021/10/31 06:20:26;;;;;;;25.90;13.98;;;;;;;9.42;50.99;94369.97;4958872;28;20042;-74
2021/10/31 06:22:51;;;;;;;24.55;14.48;;;;;;;9.31;51.19;94363.22;4960463;28;20141;-75
2021/10/31 06:25:17;;;;;;;25.98;13.25;;;;;;;9.29;51.29;94360.06;4961068;28;20046;-75
2021/10/31 06:27:42;;;;;;;22.20;15.07;;;;;;;9.45;50.95;94374.66;4976697;28;20124;-75
2021/10/31 06:30:09;;;;;;;21.13;13.15;;;;;;;9.33;50.74;94352.34;4962024;28;20034;-75
2021/10/31 06:32:34;;;;;;;20.35;10.63;;;;;;;9.48;51.17;94380.50;4958884;28;20074;-75
2021/10/31 06:35:00;;;;;;;16.48;11.48;;;;;;;9.50;50.90;94376.44;4975627;28;20046;-75
2021/10/31 06:37:26;;;;;;;28.50;13.48;;;;;;;9.38;50.78;94374.28;4959690;28;20050;-75
2021/10/31 06:39:51;;;;;;;22.92;12.98;;;;;;;9.59;49.97;94371.25;4960745;28;20086;-75
2021/10/31 06:42:17;;;;;;;27.33;15.10;;;;;;;9.43;50.11;94366.22;4960976;28;20519;-75
2021/10/31 06:44:42;;;;;;;22.17;12.75;;;;;;;9.54;49.93;94376.66;4961561;28;20497;-74
2021/10/31 06:47:08;;;;;;;25.50;14.10;;;;;;;9.48;49.59;94361.91;4959615;28;20047;-75
2021/10/31 06:49:33;;;;;;;26.70;14.95;;;;;;;9.56;49.60;94371.84;4960959;28;20046;-75
2021/10/31 06:51:59;;;;;;;24.95;13.55;;;;;;;9.54;49.69;94371.34;4961139;28;20487;-75
2021/10/31 06:54:25;;;;;;;26.50;14.60;;;;;;;9.50;49.67;94360.50;4958803;28;20113;-75
2021/10/31 06:56:50;;;;;;;25.73;14.25;;;;;;;9.53;49.98;94353.84;4961934;28;20556;-76
2021/10/31 06:59:16;;;;;;;24.27;14.82;;;;;;;9.45;50.13;94369.34;4961370;28;20038;-76
2021/10/31 07:01:41;;;;;;;23.83;12.45;;;;;;;9.52;49.94;94366.34;4960827;28;20043;-75
2021/10/31 07:04:08;;;;;;;23.65;14.02;;;;;;;9.59;49.80;94379.22;4958048;28;20736;-76
2021/10/31 07:06:37;;;;;;;22.35;13.13;;;;;;;9.57;50.17;94366.25;4962042;28;20385;-76
2021/10/31 07:09:03;;;;;;;21.38;13.55;;;;;;;9.57;50.22;94360.94;4961262;28;20074;-75
2021/10/31 07:11:28;;;;;;;21.67;14.07;;;;;;;9.68;49.90;94369.50;4961487;28;20050;-75
2021/10/31 07:13:53;;;;;;;22.92;13.52;;;;;;;9.85;49.55;94373.16;4960850;28;20535;-75
2021/10/31 07:16:19;;;;;;;24.33;14.02;;;;;;;9.45;50.21;94352.63;4966265;28;20058;-75
2021/10/31 07:18:44;;;;;;;24.65;13.75;;;;;;;9.11;51.41;94379.47;4960579;28;20030;-75
2021/10/31 07:21:10;;;;;;;24.75;13.48;;;;;;;9.33;50.83;94371.72;4961457;28;20137;-75
2021/10/31 07:23:35;;;;;;;20.73;12.60;;;;;;;9.45;50.80;94353.44;4960572;28;20042;-75
2021/10/31 07:26:01;;;;;;;25.88;13.40;;;;;;;9.72;50.52;94378.47;4958506;28;20092;-74
2021/10/31 07:28:26;;;;;;;24.77;14.13;;;;;;;9.74;50.44;94373.63;4960886;28;20038;-75
2021/10/31 07:30:53;;;;;;;20.20;13.35;;;;;;;9.69;50.57;94357.78;4975731;28;20091;-76
2021/10/31 07:33:19;;;;;;;19.65;12.77;;;;;;;9.43;50.61;94355.59;4958794;28;20045;-76
2021/10/31 07:35:45;;;;;;;30.98;13.07;;;;;;;8.75;53.09;94376.56;4960356;28;20594;-75
2021/10/31 07:38:12;;;;;;;25.17;14.75;;;;;;;8.43;53.94;94368.50;4957874;28;20449;-75
2021/10/31 07:40:37;;;;;;;21.05;12.52;;;;;;;9.18;52.88;94357.91;4959318;28;20046;-75
2021/10/31 07:43:04;;;;;;;25.25;14.00;;;;;;;9.29;52.43;94341.50;4964123;28;20042;-75
2021/10/31 07:45:30;;;;;;;28.48;15.68;;;;;;;9.60;51.75;94359.53;4959256;28;20621;-76
2021/10/31 07:47:56;;;;;;;25.52;15.07;;;;;;;9.39;52.04;94356.44;4967521;28;20716;-75
2021/10/31 07:50:21;;;;;;;22.33;12.93;;;;;;;8.90;53.26;94357.00;4951867;28;20047;-76
2021/10/31 07:52:47;;;;;;;23.92;13.75;;;;;;;8.66;54.27;94348.34;4966380;28;20035;-76
2021/10/31 07:55:18;;;;;;;24.40;14.57;;;;;;;9.42;52.80;94348.72;4967171;28;20057;-74
2021/10/31 07:57:46;;;;;;;23.52;12.80;;;;;;;9.21;52.41;94336.06;4958530;28;20041;-76
2021/10/31 08:00:12;;;;;;;25.25;14.25;;;;;;;9.22;53.20;94351.72;4958123;28;20034;-76
2021/10/31 08:02:38;;;;;;;26.27;15.00;;;;;;;9.73;52.43;94350.81;4958162;28;20042;-74
2021/10/31 08:05:05;;;;;;;24.15;14.27;;;;;;;9.80;51.58;94345.91;4959200;28;20077;-74
2021/10/31 08:07:31;;;;;;;24.08;15.10;;;;;;;9.65;52.00;94341.66;4957570;28;20041;-75
2021/10/31 08:09:58;;;;;;;22.75;13.93;;;;;;;9.00;53.72;94341.69;4958474;28;20042;-74
2021/10/31 08:12:26;;;;;;;22.83;14.35;;;;;;;9.63;52.69;94354.47;4956914;28;20033;-76
2021/10/31 08:14:52;;;;;;;24.55;14.13;;;;;;;9.24;53.69;94338.16;4957578;28;20114;-74
2021/10/31 08:17:17;;;;;;;25.20;14.70;;;;;;;8.83;55.11;94346.72;4962089;28;20100;-75
2021/10/31 08:19:42;;;;;;;25.98;16.55;;;;;;;8.49;56.63;94346.97;4961975;28;20050;-74
2021/10/31 08:22:08;;;;;;;24.17;14.95;;;;;;;7.85;59.72;94357.31;4960029;28;20408;-74
2021/10/31 08:24:33;;;;;;;29.58;17.33;;;;;;;8.19;59.67;94344.72;4951378;28;20081;-74
2021/10/31 08:26:59;;;;;;;28.92;16.45;;;;;;;8.71;57.86;94337.63;4959632;28;20088;-75
2021/10/31 08:29:24;;;;;;;31.48;16.05;;;;;;;8.80;57.15;94344.66;4965129;28;20070;-74
2021/10/31 08:31:53;;;;;;;35.92;16.23;;;;;;;8.27;59.23;94338.78;4964189;28;20065;-74
2021/10/31 08:34:19;;;;;;;29.33;16.10;;;;;;;8.76;57.57;94321.63;4963440;28;20104;-75
2021/10/31 08:36:44;;;;;;;29.98;15.38;;;;;;;8.64;57.91;94331.91;4969573;28;20035;-73
2021/10/31 08:39:10;;;;;;;28.40;14.60;;;;;;;8.09;59.33;94305.09;4961555;28;20045;-75
2021/10/31 08:41:37;;;;;;;24.52;14.20;;;;;;;8.02;59.93;94323.22;4962182;28;20476;-74
2021/10/31 08:44:02;;;;;;;23.75;12.90;;;;;;;8.42;59.03;94335.91;4957920;28;20206;-75
2021/10/31 08:46:30;;;;;;;25.33;13.25;;;;;;;8.53;59.46;94325.97;4963452;28;20038;-74
2021/10/31 08:48:56;;;;;;;24.52;14.18;;;;;;;8.76;58.83;94325.06;4968579;28;20034;-75
2021/10/31 08:51:23;;;;;;;23.63;12.07;;;;;;;8.26;60.06;94316.03;4966235;28;20049;-75
2021/10/31 08:53:49;;;;;;;22.38;12.80;;;;;;;7.95;60.05;94296.28;4965119;28;20038;-74
2021/10/31 08:56:14;;;;;;;21.33;13.10;;;;;;;8.57;60.24;94316.34;4968642;28;20114;-75
2021/10/31 08:58:44;;;;;;;21.55;11.70;;;;;;;8.22;60.05;94295.69;4967366;28;20142;-76
2021/10/31 09:01:11;;;;;;;23.45;12.63;;;;;;;7.92;61.19;94289.72;4965805;28;20022;-75
2021/10/31 09:03:36;;;;;;;24.40;12.13;;;;;;;8.21;61.53;94310.78;4978229;28;20784;-76
2021/10/31 09:06:02;;;;;;;21.58;13.15;;;;;;;7.80;62.53;94310.50;4966863;28;20461;-76
2021/10/31 09:08:27;;;;;;;25.55;12.85;;;;;;;8.05;62.45;94309.41;4963624;28;20557;-76
2021/10/31 09:10:53;;;;;;;25.20;12.85;;;;;;;8.02;62.65;94309.97;4967591;28;20444;-76
2021/10/31 09:13:22;;;;;;;21.00;12.27;;;;;;;7.96;62.72;94300.50;4966916;28;20041;-75
2021/10/31 09:15:48;;;;;;;21.80;12.15;;;;;;;7.57;62.59;94288.25;4977655;28;20042;-76
2021/10/31 09:18:13;;;;;;;21.70;13.52;;;;;;;7.58;63.12;94299.63;4968759;28;20125;-76
2021/10/31 09:20:40;;;;;;;19.60;11.65;;;;;;;7.61;63.15;94304.34;4968307;28;20416;-77
2021/10/31 09:23:07;;;;;;;22.58;13.88;;;;;;;7.94;60.95;94295.50;4963903;28;20045;-74
2021/10/31 09:25:34;;;;;;;19.20;12.15;;;;;;;7.90;60.64;94249.47;4966799;28;20048;-74
2021/10/31 09:28:01;;;;;;;21.02;11.48;;;;;;;8.34;60.62;94286.22;4965428;28;20038;-75
2021/10/31 09:30:29;;;;;;;20.08;12.20;;;;;;;8.48;59.22;94263.22;4964962;28;20505;-74
2021/10/31 09:32:56;;;;;;;20.35;12.73;;;;;;;8.27;60.04;94284.97;4964345;28;20165;-74
2021/10/31 09:35:26;;;;;;;20.08;11.70;;;;;;;8.57;58.24;94268.63;4965309;28;20038;-74
2021/10/31 09:37:56;;;;;;;22.08;11.88;;;;;;;8.55;56.39;94284.84;4962508;28;20043;-74
2021/10/31 09:40:23;;;;;;;20.15;11.80;;;;;;;8.09;56.95;94255.56;4959320;28;20431;-74
2021/10/31 09:42:51;;;;;;;21.00;11.32;;;;;;;8.03;57.13;94237.38;4963661;28;20066;-74
2021/10/31 09:45:16;;;;;;;18.48;9.77;;;;;;;8.35;55.45;94271.91;4964334;28;20466;-75
2021/10/31 09:47:43;;;;;;;16.65;10.60;;;;;;;8.28;55.19;94263.50;4984328;28;20031;-74
2021/10/31 09:50:09;;;;;;;14.02;9.50;;;;;;;8.10;54.98;94253.69;4964876;28;20034;-75
2021/10/31 09:52:35;;;;;;;15.63;9.02;;;;;;;8.09;55.71;94233.56;4960013;28;20041;-74
2021/10/31 09:55:03;;;;;;;10.70;7.70;;;;;;;8.25;54.12;94258.00;4961312;28;20508;-75
2021/10/31 09:57:28;;;;;;;13.50;8.32;;;;;;;8.42;52.60;94255.59;4963174;28;20051;-75
2021/10/31 09:59:57;;;;;;;10.65;7.28;;;;;;;8.21;52.45;94255.16;4974288;28;20065;-74
2021/10/31 10:02:45;;;;;;;10.25;7.18;;;;;;;7.98;52.71;94240.88;4964193;28;20216;-74
2021/10/31 10:05:18;;;;;;;12.00;7.50;;;;;;;8.04;52.36;94249.53;4978751;28;20042;-75
2021/10/31 10:07:43;;;;;;;15.48;7.63;;;;;;;7.93;52.37;94237.50;4965573;28;20050;-75
2021/10/31 10:10:12;;;;;;;12.30;7.32;;;;;;;7.97;52.45;94230.59;4964749;28;20031;-74
2021/10/31 10:12:38;;;;;;;9.73;6.25;;;;;;;7.97;52.54;94227.94;4965188;28;20408;-75
2021/10/31 10:15:07;;;;;;;10.73;7.68;;;;;;;8.22;51.84;94238.16;4959561;28;20043;-75
2021/10/31 10:17:43;;;;;;;10.73;7.07;;;;;;;7.94;52.11;94220.53;4962138;28;20133;-75
2021/10/31 10:20:11;;;;;;;12.07;8.13;;;;;;;7.99;51.56;94220.47;4964092;28;20617;-75
2021/10/31 10:22:38;;;;;;;13.82;6.90;;;;;;;8.08;51.34;94232.00;4963264;28;20608;-75
2021/10/31 10:25:04;;;;;;;9.93;6.32;;;;;;;8.09;51.48;94225.63;4969455;28;20034;-74
2021/10/31 10:27:35;;;;;;;11.93;6.30;;;;;;;8.05;51.42;94206.09;4969226;28;20035;-74
2021/10/31 10:30:13;;;;;;;11.98;7.68;;;;;;;8.25;51.45;94227.00;4965445;28;20046;-75
2021/10/31 10:32:50;;;;;;;12.55;7.25;;;;;;;8.41;51.37;94215.06;4962893;28;20034;-74
2021/10/31 10:35:17;;;;;;;9.98;7.22;;;;;;;8.27;51.48;94187.72;4964858;28;20039;-75
2021/10/31 10:37:42;;;;;;;9.95;7.43;;;;;;;8.71;51.64;94215.63;4963839;28;20035;-75
2021/10/31 10:40:14;;;;;;;11.85;7.30;;;;;;;8.44;51.57;94205.75;4967198;28;20041;-75
2021/10/31 10:42:52;;;;;;;11.40;7.35;;;;;;;8.40;51.50;94208.22;4966754;28;20070;-75
2021/10/31 10:45:21;;;;;;;11.88;7.85;;;;;;;8.24;51.50;94184.88;4965409;28;20109;-75
2021/10/31 10:47:57;;;;;;;11.43;7.78;;;;;;;8.44;51.78;94201.25;4961688;28;20041;-75
2021/10/31 10:50:27;;;;;;;9.82;7.03;;;;;;;8.32;51.80;94200.91;4962504;28;20083;-75
2021/10/31 10:52:56;;;;;;;12.75;7.60;;;;;;;8.29;51.68;94193.53;4967488;28;20138;-75
2021/10/31 10:55:34;;;;;;;13.68;9.02;;;;;;;8.23;51.88;94202.63;4960945;28;20030;-75
2021/10/31 10:58:10;;;;;;;10.75;7.18;;;;;;;8.19;51.59;94169.84;4962095;28;20033;-74
2021/10/31 11:00:40;;;;;;;8.88;6.75;;;;;;;8.29;51.76;94192.75;4965624;28;20409;-74
2021/10/31 11:03:05;;;;;;;12.30;7.57;;;;;;;8.40;51.66;94200.25;4961820;28;20916;-74
2021/10/31 11:05:34;;;;;;;13.45;8.43;;;;;;;8.25;51.38;94191.75;4959832;28;20061;-75
2021/10/31 11:08:00;;;;;;;12.98;7.93;;;;;;;7.92;52.11;94167.88;4963710;28;20042;-75
2021/10/31 11:10:29;;;;;;;13.48;7.63;;;;;;;8.18;52.02;94175.41;4968412;28;20432;-74
2021/10/31 11:13:00;;;;;;;12.00;7.68;;;;;;;8.22;51.96;94171.91;4967406;28;20033;-74
2021/10/31 11:15:33;;;;;;;10.68;8.23;;;;;;;8.21;51.71;94169.56;4962330;28;20049;-76
2021/10/31 11:18:02;;;;;;;9.43;6.38;;;;;;;8.36;51.75;94178.06;4947357;28;20039;-74
2021/10/31 11:20:30;;;;;;;9.90;6.85;;;;;;;8.44;51.30;94177.38;4943171;28;20050;-74
2021/10/31 11:23:00;;;;;;;10.07;7.05;;;;;;;8.32;51.18;94155.06;4939689;28;20148;-74
2021/10/31 11:25:28;;;;;;;10.35;6.97;;;;;;;8.49;51.13;94174.66;4946802;28;20038;-74
2021/10/31 11:28:02;;;;;;;12.23;7.72;;;;;;;8.64;50.68;94172.81;4945949;28;20439;-75
2021/10/31 11:30:28;;;;;;;10.13;7.47;;;;;;;8.69;50.84;94164.78;4947974;28;20101;-75
2021/10/31 11:32:55;;;;;;;11.95;7.38;;;;;;;8.48;50.63;94159.81;4944703;28;20141;-74